Time;durP1;ratioP1;P1;durP2;ratioP2;P2;SDS_P1;SDS_P2;PMS_P1;PMS_P2;Temp;Humidity;BMP_temperature;BMP_pressure;BME280_temperature;BME280_humidity;BME280_pressure;Samples;Min_cycle;Max_cycle;Signal;HPM_P1;HPM_P2
2023/07/13 00:00:42;;;;;;;5.45;2.10;;;26.90;56.80;;;;;;6117819;29;20179;-74
2023/07/13 00:03:43;;;;;;;4.28;2.20;;;26.80;56.90;;;;;;6144554;28;20069;-75
2023/07/13 00:06:45;;;;;;;8.43;2.25;;;26.80;57.00;;;;;;6144110;28;20035;-74
2023/07/13 00:09:47;;;;;;;6.72;2.17;;;26.70;56.90;;;;;;6143318;28;20035;-73
2023/07/13 00:12:50;;;;;;;5.90;2.40;;;26.70;56.80;;;;;;6146671;28;20132;-73
2023/07/13 00:15:51;;;;;;;5.72;2.15;;;26.70;56.70;;;;;;6143478;28;20348;-74
2023/07/13 00:18:52;;;;;;;6.78;2.03;;;26.80;56.30;;;;;;6135062;28;20377;-74
2023/07/13 00:21:55;;;;;;;4.72;1.80;;;26.80;56.50;;;;;;6118382;29;20570;-73
2023/07/13 00:24:56;;;;;;;2.10;1.50;;;26.80;55.50;;;;;;6120216;29;20039;-73
2023/07/13 00:27:57;;;;;;;3.58;2.00;;;26.90;54.90;;;;;;6119815;29;20513;-73
2023/07/13 00:30:58;;;;;;;4.35;1.58;;;27.00;54.60;;;;;;6103222;29;20035;-73
2023/07/13 00:34:00;;;;;;;3.55;1.67;;;27.00;54.20;;;;;;6119085;29;20345;-73
2023/07/13 00:37:01;;;;;;;2.45;1.60;;;27.10;53.90;;;;;;6119009;29;20464;-75
2023/07/13 00:40:05;;;;;;;3.78;1.85;;;27.10;53.80;;;;;;6120068;29;20035;-73
2023/07/13 00:43:21;;;;;;;3.47;2.15;;;27.10;53.80;;;;;;6118358;29;20555;-74
2023/07/13 00:46:28;;;;;;;7.78;3.05;;;27.10;54.40;;;;;;6118691;29;20063;-73
2023/07/13 00:49:32;;;;;;;4.78;2.55;;;27.00;54.90;;;;;;6103346;29;20400;-74
2023/07/13 00:52:37;;;;;;;5.13;2.72;;;27.00;55.50;;;;;;6095805;29;20104;-74
2023/07/13 00:55:40;;;;;;;4.78;2.80;;;27.00;56.20;;;;;;6104042;29;20720;-74
2023/07/13 00:58:40;;;;;;;6.07;3.10;;;26.90;56.40;;;;;;6142483;28;20564;-73
2023/07/13 01:01:41;;;;;;;5.13;2.95;;;26.90;56.80;;;;;;6127147;28;20039;-74
2023/07/13 01:04:43;;;;;;;5.20;2.72;;;26.90;57.10;;;;;;6147043;29;20459;-74
2023/07/13 01:07:46;;;;;;;5.15;2.47;;;26.90;57.40;;;;;;6131245;29;20476;-74
2023/07/13 01:10:57;;;;;;;12.20;3.10;;;26.90;57.60;;;;;;6146952;29;20081;-73
2023/07/13 01:13:58;;;;;;;5.28;2.88;;;26.80;57.90;;;;;;6146186;28;20031;-74
2023/07/13 01:17:00;;;;;;;4.53;1.30;;;26.80;58.00;;;;;;6119574;29;20114;-73
2023/07/13 01:20:01;;;;;;;2.72;1.40;;;26.80;57.40;;;;;;6110049;29;20035;-73
2023/07/13 01:23:12;;;;;;;5.20;1.40;;;26.80;56.20;;;;;;6122093;29;20035;-76
2023/07/13 01:26:13;;;;;;;2.25;1.83;;;26.70;55.40;;;;;;6124304;29;20059;-74
2023/07/13 01:29:15;;;;;;;2.53;1.33;;;26.80;54.70;;;;;;6122539;29;20476;-74
2023/07/13 01:32:22;;;;;;;3.05;1.38;;;26.80;54.30;;;;;;6122339;29;20115;-74
2023/07/13 01:35:25;;;;;;;2.70;1.33;;;26.80;54.00;;;;;;6122541;29;20803;-73
2023/07/13 01:38:26;;;;;;;1.80;1.23;;;26.80;53.70;;;;;;6122492;29;20108;-73
2023/07/13 01:41:27;;;;;;;3.38;1.17;;;26.70;53.20;;;;;;6106138;29;20027;-73
2023/07/13 01:44:28;;;;;;;4.65;1.67;;;26.70;53.30;;;;;;6122344;29;20027;-74
2023/07/13 01:47:31;;;;;;;2.97;1.20;;;26.70;53.10;;;;;;6122249;29;20047;-73
2023/07/13 01:50:32;;;;;;;2.30;1.30;;;26.70;53.00;;;;;;6122587;29;20035;-73
2023/07/13 01:53:33;;;;;;;2.83;1.23;;;26.60;53.00;;;;;;6122108;29;20118;-74
2023/07/13 01:56:36;;;;;;;1.92;1.30;;;26.60;52.80;;;;;;6122380;29;20051;-74
2023/07/13 01:59:37;;;;;;;2.78;1.00;;;26.60;52.70;;;;;;6122404;29;20039;-74
2023/07/13 02:02:40;;;;;;;4.28;1.20;;;26.60;52.80;;;;;;6121713;29;20475;-73
2023/07/13 02:05:41;;;;;;;1.75;1.10;;;26.50;52.70;;;;;;6105955;29;20042;-73
2023/07/13 02:08:44;;;;;;;2.17;1.33;;;26.50;52.80;;;;;;6105698;29;20066;-73
2023/07/13 02:11:44;;;;;;;7.15;1.58;;;26.40;52.50;;;;;;6120675;29;20468;-73
2023/07/13 02:14:46;;;;;;;2.70;1.20;;;26.40;52.60;;;;;;6136805;28;20032;-73
2023/07/13 02:17:47;;;;;;;2.13;0.82;;;26.30;52.50;;;;;;6123167;29;20035;-74
2023/07/13 02:20:48;;;;;;;2.45;1.42;;;26.30;52.70;;;;;;6121735;29;20058;-74
2023/07/13 02:23:49;;;;;;;3.17;0.98;;;26.30;52.80;;;;;;6121058;29;20087;-73
2023/07/13 02:26:50;;;;;;;3.00;1.30;;;26.20;52.80;;;;;;6121553;29;20251;-73
2023/07/13 02:29:52;;;;;;;1.42;0.95;;;26.20;53.10;;;;;;6122552;29;20114;-74
2023/07/13 02:32:55;;;;;;;2.03;0.90;;;26.10;53.10;;;;;;6120850;29;20422;-74
2023/07/13 02:35:56;;;;;;;4.57;1.15;;;26.10;53.00;;;;;;6122392;29;20066;-74
2023/07/13 02:39:02;;;;;;;4.25;1.00;;;26.10;53.00;;;;;;6122895;29;20031;-75
2023/07/13 02:42:03;;;;;;;4.38;0.90;;;26.00;53.00;;;;;;6121450;29;20476;-73
2023/07/13 02:45:06;;;;;;;3.20;1.10;;;26.00;53.20;;;;;;6121368;29;20035;-73
2023/07/13 02:48:07;;;;;;;2.55;1.23;;;25.90;53.40;;;;;;6125207;29;20042;-74
2023/07/13 02:51:08;;;;;;;2.60;1.20;;;25.90;53.40;;;;;;6120544;29;20134;-73
2023/07/13 02:54:11;;;;;;;2.05;0.98;;;25.80;53.40;;;;;;6120767;29;20650;-74
2023/07/13 02:57:12;;;;;;;3.03;0.93;;;25.20;53.20;;;;;;6120447;29;20032;-73
2023/07/13 03:00:16;;;;;;;2.58;1.10;;;25.70;53.60;;;;;;6120589;29;20316;-75
2023/07/13 03:03:17;;;;;;;3.38;1.20;;;25.70;53.60;;;;;;6120044;29;20039;-75
2023/07/13 03:06:19;;;;;;;0.95;0.65;;;25.70;53.80;;;;;;6105267;29;20540;-74
2023/07/13 03:09:25;;;;;;;2.95;0.90;;;25.70;53.80;;;;;;6143359;29;20038;-74
2023/07/13 03:12:27;;;;;;;1.38;1.02;;;25.60;53.70;;;;;;6128298;29;20050;-73
2023/07/13 03:15:29;;;;;;;3.38;0.93;;;25.70;53.80;;;;;;6143759;28;20679;-74
2023/07/13 03:18:32;;;;;;;2.40;1.05;;;25.60;53.70;;;;;;6144257;28;20129;-73
2023/07/13 03:21:37;;;;;;;1.92;1.00;;;25.60;53.80;;;;;;6140370;28;20031;-74
2023/07/13 03:24:38;;;;;;;2.28;1.15;;;25.60;54.00;;;;;;6135995;28;20044;-74
2023/07/13 03:27:40;;;;;;;1.48;0.82;;;25.70;54.00;;;;;;6119771;29;20378;-74
2023/07/13 03:30:42;;;;;;;2.30;1.20;;;25.60;53.90;;;;;;6119910;29;20214;-74
2023/07/13 03:33:44;;;;;;;2.17;1.10;;;25.60;53.90;;;;;;6103540;29;20090;-74
2023/07/13 03:36:46;;;;;;;5.90;1.35;;;25.50;54.00;;;;;;6136569;28;20465;-73
2023/07/13 03:39:48;;;;;;;21.02;4.50;;;25.50;54.10;;;;;;6119492;29;20035;-75
2023/07/13 03:42:50;;;;;;;4.97;1.27;;;25.50;54.20;;;;;;6104391;29;20054;-75
2023/07/13 03:45:54;;;;;;;1.15;1.05;;;25.40;54.20;;;;;;6135993;29;20695;-74
2023/07/13 03:48:58;;;;;;;1.48;0.93;;;25.40;54.30;;;;;;6143556;29;20038;-74
2023/07/13 03:51:59;;;;;;;1.38;0.80;;;25.40;54.30;;;;;;6138489;28;20091;-73
2023/07/13 03:55:00;;;;;;;5.93;0.82;;;25.40;54.10;;;;;;6119368;29;20260;-74
2023/07/13 03:58:28;;;;;;;2.45;0.73;;;25.40;53.70;;;;;;6119585;29;20149;-74
2023/07/13 04:01:35;;;;;;;5.03;0.90;;;25.30;53.60;;;;;;6119257;29;20146;-74
2023/07/13 04:04:35;;;;;;;1.40;0.60;;;25.40;53.30;;;;;;6111089;29;20060;-74
2023/07/13 04:07:36;;;;;;;2.33;0.75;;;25.40;53.20;;;;;;6095645;29;20036;-74
2023/07/13 04:10:38;;;;;;;2.08;0.95;;;24.60;52.60;;;;;;6127649;29;20483;-74
2023/07/13 04:13:39;;;;;;;0.98;0.80;;;25.40;52.80;;;;;;6110315;29;20122;-73
2023/07/13 04:16:40;;;;;;;2.35;0.80;;;25.40;52.60;;;;;;6097319;29;20031;-73
2023/07/13 04:19:42;;;;;;;1.13;0.50;;;25.40;52.40;;;;;;6094971;29;20044;-74
2023/07/13 04:22:43;;;;;;;1.27;0.80;;;25.40;52.10;;;;;;6119238;29;20425;-75
2023/07/13 04:25:52;;;;;;;0.60;0.60;;;25.40;51.70;;;;;;6120452;29;20122;-75
2023/07/13 04:28:53;;;;;;;1.83;0.70;;;25.50;51.40;;;;;;6119365;29;20031;-73
2023/07/13 04:31:54;;;;;;;1.17;0.80;;;25.50;50.90;;;;;;6118298;29;20744;-74
2023/07/13 04:34:55;;;;;;;1.67;0.82;;;25.50;50.30;;;;;;6134866;29;20048;-74
2023/07/13 04:37:56;;;;;;;0.60;0.60;;;25.60;50.00;;;;;;6118057;29;20024;-74
2023/07/13 04:41:01;;;;;;;0.40;0.40;;;25.60;49.20;;;;;;6102799;29;20045;-74
2023/07/13 04:44:03;;;;;;;5.45;1.15;;;25.50;48.90;;;;;;6119596;29;20091;-73
2023/07/13 04:47:04;;;;;;;1.60;0.77;;;25.50;48.90;;;;;;6120001;29;20043;-74
2023/07/13 04:50:08;;;;;;;0.98;0.57;;;25.40;48.80;;;;;;6118357;29;20058;-73
2023/07/13 04:53:10;;;;;;;1.10;0.55;;;25.40;48.90;;;;;;6119442;29;20047;-73
2023/07/13 04:56:11;;;;;;;0.75;0.50;;;25.30;48.90;;;;;;6118301;29;20035;-74
2023/07/13 04:59:12;;;;;;;1.80;0.60;;;25.30;49.20;;;;;;6119780;29;20032;-72
2023/07/13 05:02:13;;;;;;;1.83;0.60;;;25.20;49.40;;;;;;6101815;29;20102;-73
2023/07/13 05:05:15;;;;;;;1.60;0.82;;;25.20;49.60;;;;;;6119676;29;20047;-74
2023/07/13 05:08:16;;;;;;;1.85;0.70;;;25.10;49.50;;;;;;6102567;29;20095;-74
2023/07/13 05:11:18;;;;;;;1.85;0.77;;;25.00;49.60;;;;;;6118356;29;20143;-73
2023/07/13 05:14:19;;;;;;;0.90;0.65;;;25.00;49.80;;;;;;6118062;29;20559;-73
2023/07/13 05:17:20;;;;;;;2.22;0.60;;;25.00;49.80;;;;;;6118538;29;20039;-74
2023/07/13 05:20:21;;;;;;;1.77;0.75;;;24.90;49.90;;;;;;6119637;29;20469;-75
2023/07/13 05:23:22;;;;;;;1.48;0.82;;;24.90;50.00;;;;;;6117025;29;20086;-73
2023/07/13 05:26:23;;;;;;;8.20;0.75;;;24.90;49.90;;;;;;6118637;29;20036;-73
2023/07/13 05:29:24;;;;;;;3.10;0.65;;;24.80;50.10;;;;;;6119149;29;20560;-73
2023/07/13 05:32:25;;;;;;;0.77;0.60;;;24.80;50.30;;;;;;6118190;29;20032;-75
2023/07/13 05:35:26;;;;;;;0.85;0.82;;;24.80;50.90;;;;;;6118798;29;20032;-73
2023/07/13 05:38:28;;;;;;;2.55;0.55;;;24.70;50.30;;;;;;6120282;29;20126;-73
2023/07/13 05:41:29;;;;;;;1.77;0.73;;;24.70;50.30;;;;;;6118690;29;20039;-73
2023/07/13 05:44:30;;;;;;;0.68;0.60;;;24.70;50.50;;;;;;6102495;29;20051;-74
2023/07/13 05:47:31;;;;;;;2.35;0.88;;;24.70;50.70;;;;;;6118490;29;20035;-74
2023/07/13 05:50:33;;;;;;;2.33;0.73;;;24.60;50.60;;;;;;6122611;29;20110;-73
2023/07/13 05:53:35;;;;;;;0.82;0.70;;;24.60;50.80;;;;;;6122337;29;20032;-75
2023/07/13 05:56:36;;;;;;;0.70;0.60;;;24.60;51.00;;;;;;6106305;29;20477;-73
2023/07/13 05:59:38;;;;;;;1.27;0.57;;;24.50;51.10;;;;;;6121978;29;20035;-74
2023/07/13 06:02:39;;;;;;;2.03;0.68;;;24.50;51.30;;;;;;6122630;29;20480;-74
2023/07/13 06:05:40;;;;;;;3.25;0.98;;;24.50;51.70;;;;;;6121954;29;20403;-73
2023/07/13 06:08:41;;;;;;;1.17;0.80;;;24.40;51.80;;;;;;6137723;29;20444;-74
2023/07/13 06:11:42;;;;;;;8.40;1.17;;;24.40;51.90;;;;;;6106318;29;20036;-74
2023/07/13 06:14:43;;;;;;;0.63;0.52;;;24.50;51.90;;;;;;6138233;29;20775;-74
2023/07/13 06:17:44;;;;;;;3.22;0.88;;;24.50;51.70;;;;;;6121592;28;20031;-73
2023/07/13 06:20:45;;;;;;;1.55;0.55;;;24.60;51.50;;;;;;6137430;28;20450;-74
2023/07/13 06:23:48;;;;;;;2.45;0.70;;;24.70;51.50;;;;;;6121441;29;20032;-74
2023/07/13 06:26:49;;;;;;;5.28;0.70;;;24.70;51.50;;;;;;6106279;29;20049;-74
2023/07/13 06:29:50;;;;;;;1.48;0.75;;;24.80;51.50;;;;;;6125812;29;20039;-73
2023/07/13 06:32:51;;;;;;;0.60;0.60;;;24.80;51.40;;;;;;6128084;29;20032;-72
2023/07/13 06:35:54;;;;;;;0.50;0.50;;;24.80;51.50;;;;;;6146719;28;20043;-73
2023/07/13 06:38:55;;;;;;;4.07;0.90;;;24.80;51.50;;;;;;6144918;29;20457;-75
2023/07/13 06:41:56;;;;;;;5.65;0.70;;;24.80;51.50;;;;;;6136275;28;20034;-74
2023/07/13 06:44:57;;;;;;;1.85;0.93;;;24.90;51.50;;;;;;6105727;29;20036;-74
2023/07/13 06:47:58;;;;;;;1.83;0.90;;;24.90;51.30;;;;;;6120362;29;20070;-74
2023/07/13 06:50:59;;;;;;;1.13;0.73;;;25.00;51.10;;;;;;6105035;29;20035;-74
2023/07/13 06:54:00;;;;;;;2.75;0.70;;;25.00;51.00;;;;;;6120314;29;20050;-73
2023/07/13 06:57:01;;;;;;;1.45;0.90;;;25.10;51.00;;;;;;6136221;29;20480;-73
2023/07/13 07:00:03;;;;;;;0.93;0.80;;;25.30;50.70;;;;;;6135994;28;20039;-73
2023/07/13 07:03:05;;;;;;;0.50;0.43;;;25.50;50.30;;;;;;6121977;29;20039;-74
2023/07/13 07:06:19;;;;;;;1.73;0.70;;;25.60;49.80;;;;;;6104998;29;20047;-75
2023/07/13 07:09:20;;;;;;;2.58;0.70;;;25.80;49.70;;;;;;6120614;29;20036;-73
2023/07/13 07:12:21;;;;;;;2.60;0.98;;;25.90;49.50;;;;;;6104742;29;20389;-74
2023/07/13 07:15:22;;;;;;;1.15;0.80;;;26.00;49.20;;;;;;6104443;29;20039;-74
2023/07/13 07:18:23;;;;;;;0.80;0.60;;;26.10;49.00;;;;;;6120472;29;20139;-74
2023/07/13 07:21:25;;;;;;;1.50;0.73;;;26.10;49.00;;;;;;6120123;29;20032;-74
2023/07/13 07:24:26;;;;;;;1.20;0.80;;;26.20;48.90;;;;;;6120331;29;20028;-76
2023/07/13 07:27:27;;;;;;;1.80;0.60;;;26.30;48.80;;;;;;6135730;29;20058;-73
2023/07/13 07:30:28;;;;;;;0.50;0.50;;;26.40;48.70;;;;;;6132696;29;20031;-73
2023/07/13 07:33:29;;;;;;;1.15;0.70;;;26.40;48.60;;;;;;6142931;28;20086;-75
2023/07/13 07:36:32;;;;;;;2.75;0.63;;;26.50;48.00;;;;;;6143958;29;20106;-73
2023/07/13 07:39:34;;;;;;;3.95;0.70;;;26.50;47.90;;;;;;6144024;29;20442;-74
2023/07/13 07:42:35;;;;;;;0.98;0.63;;;26.60;47.90;;;;;;6129824;28;20047;-74
2023/07/13 07:45:38;;;;;;;5.30;0.90;;;26.90;47.70;;;;;;6118878;29;20113;-74
2023/07/13 07:48:38;;;;;;;2.58;0.98;;;26.90;47.50;;;;;;6119412;29;20197;-76
2023/07/13 07:51:40;;;;;;;2.10;0.90;;;27.00;47.60;;;;;;6118492;29;20043;-73
2023/07/13 07:54:41;;;;;;;1.58;0.82;;;27.00;47.60;;;;;;6119908;29;20341;-74
2023/07/13 07:57:44;;;;;;;2.75;1.05;;;27.10;47.60;;;;;;6120826;29;20106;-74
2023/07/13 08:00:45;;;;;;;6.43;0.98;;;27.10;47.40;;;;;;6119482;29;20055;-74
2023/07/13 08:03:45;;;;;;;1.70;0.75;;;27.20;47.50;;;;;;6116170;29;20039;-74
2023/07/13 08:06:47;;;;;;;3.70;1.83;;;27.20;47.40;;;;;;6144326;29;20070;-74
2023/07/13 08:09:52;;;;;;;5.43;1.20;;;27.20;47.40;;;;;;6143830;28;20397;-73
2023/07/13 08:12:53;;;;;;;2.72;0.90;;;27.20;47.50;;;;;;6142209;28;20038;-73
2023/07/13 08:15:54;;;;;;;1.42;0.63;;;27.20;47.70;;;;;;6159175;28;20106;-74
2023/07/13 08:18:55;;;;;;;0.75;0.65;;;27.10;47.80;;;;;;6127112;29;20058;-73
2023/07/13 08:21:56;;;;;;;0.60;0.55;;;27.20;47.80;;;;;;6152493;28;20047;-73
2023/07/13 08:24:58;;;;;;;2.58;0.75;;;27.20;47.50;;;;;;6119791;29;20036;-74
2023/07/13 08:28:00;;;;;;;1.30;0.70;;;27.30;47.50;;;;;;6142056;29;20035;-74
2023/07/13 08:31:03;;;;;;;1.77;0.73;;;27.40;47.20;;;;;;6142591;28;20130;-72
2023/07/13 08:34:04;;;;;;;1.02;0.77;;;27.40;47.20;;;;;;6142554;28;20170;-74
2023/07/13 08:37:07;;;;;;;1.77;0.70;;;27.40;46.90;;;;;;6142232;29;20134;-74
2023/07/13 08:40:12;;;;;;;3.70;1.02;;;27.60;46.60;;;;;;6143684;28;20039;-75
2023/07/13 08:43:19;;;;;;;1.27;0.90;;;27.70;46.40;;;;;;6126295;29;20063;-74
2023/07/13 08:46:31;;;;;;;2.47;0.88;;;27.80;46.10;;;;;;6121764;29;20040;-73
2023/07/13 08:49:33;;;;;;;0.98;0.70;;;27.90;45.90;;;;;;6102568;29;20039;-74
2023/07/13 08:52:40;;;;;;;0.75;0.70;;;27.90;46.00;;;;;;6119109;29;20079;-74
2023/07/13 08:55:42;;;;;;;10.55;0.95;;;27.80;46.10;;;;;;6120042;29;20032;-73
2023/07/13 08:58:48;;;;;;;1.42;0.88;;;27.30;45.90;;;;;;6117733;29;20056;-76
2023/07/13 09:02:08;;;;;;;1.50;0.80;;;27.90;46.30;;;;;;6117969;29;20032;-73
2023/07/13 09:05:22;;;;;;;3.90;1.02;;;27.90;46.20;;;;;;6117975;29;20508;-73
2023/07/13 09:08:48;;;;;;;1.95;0.80;;;27.90;46.00;;;;;;6118439;29;20344;-74
2023/07/13 09:12:02;;;;;;;3.97;0.90;;;27.90;46.00;;;;;;6118042;29;20048;-74
2023/07/13 09:15:04;;;;;;;2.97;0.88;;;28.00;46.00;;;;;;6118383;29;20166;-74
2023/07/13 09:18:23;;;;;;;2.55;0.60;;;28.10;45.90;;;;;;6118191;29;20364;-74
2023/07/13 09:21:33;;;;;;;2.60;0.82;;;28.20;45.70;;;;;;6118572;29;20043;-75
2023/07/13 09:24:50;;;;;;;0.90;0.80;;;28.20;45.60;;;;;;6121903;29;20435;-73
2023/07/13 09:27:56;;;;;;;2.08;0.85;;;28.30;45.60;;;;;;6124738;29;20143;-75
2023/07/13 09:31:07;;;;;;;0.93;0.57;;;28.30;45.30;;;;;;6123256;29;20038;-74
2023/07/13 09:34:11;;;;;;;3.70;1.00;;;28.40;45.20;;;;;;6123113;29;20047;-74
2023/07/13 09:37:12;;;;;;;1.52;0.82;;;28.50;44.30;;;;;;6123255;29;20034;-73
2023/07/13 09:40:31;;;;;;;4.68;0.98;;;28.50;44.60;;;;;;6122663;29;20039;-76
2023/07/13 09:43:32;;;;;;;2.42;1.00;;;28.70;44.50;;;;;;6123244;29;20039;-74
2023/07/13 09:46:34;;;;;;;1.90;1.02;;;28.90;44.20;;;;;;6124071;29;20094;-74
2023/07/13 09:49:36;;;;;;;1.27;0.90;;;29.00;43.80;;;;;;6106718;29;20040;-74
2023/07/13 09:52:46;;;;;;;2.97;0.77;;;29.10;43.40;;;;;;6121976;29;20028;-73
2023/07/13 09:55:48;;;;;;;10.70;1.30;;;29.30;42.90;;;;;;6122341;29;20048;-74
2023/07/13 09:58:49;;;;;;;2.75;1.30;;;29.30;42.70;;;;;;6122443;29;20043;-74
2023/07/13 10:01:50;;;;;;;3.33;0.90;;;29.30;42.60;;;;;;6122367;29;20039;-74
2023/07/13 10:05:00;;;;;;;3.33;1.17;;;29.30;42.50;;;;;;6123640;29;20129;-73
2023/07/13 10:08:01;;;;;;;5.55;1.15;;;29.30;42.40;;;;;;6122538;29;20375;-74
2023/07/13 10:11:22;;;;;;;9.63;1.38;;;29.30;42.30;;;;;;6121925;29;20039;-74
2023/07/13 10:14:25;;;;;;;1.17;0.80;;;29.30;42.20;;;;;;6124917;29;20032;-72
2023/07/13 10:17:32;;;;;;;1.75;0.75;;;29.30;41.90;;;;;;6105681;29;20035;-74
2023/07/13 10:20:33;;;;;;;4.10;1.08;;;29.20;41.60;;;;;;6128964;29;20125;-73
2023/07/13 10:23:36;;;;;;;1.67;0.90;;;29.20;41.50;;;;;;6126449;28;20035;-72
2023/07/13 10:26:41;;;;;;;2.35;0.80;;;29.10;41.30;;;;;;6106239;29;20032;-72
2023/07/13 10:29:58;;;;;;;3.53;1.13;;;29.00;40.80;;;;;;6121695;29;20087;-74
2023/07/13 10:33:02;;;;;;;3.17;0.90;;;29.00;41.20;;;;;;6123010;29;20035;-73
2023/07/13 10:36:33;;;;;;;6.93;2.20;;;29.10;41.00;;;;;;6120339;29;20031;-73
2023/07/13 10:39:36;;;;;;;1.40;0.85;;;29.10;40.70;;;;;;6082474;29;20036;-72
2023/07/13 10:42:42;;;;;;;1.58;1.00;;;29.20;40.70;;;;;;6099297;29;20043;-72
2023/07/13 10:45:46;;;;;;;5.30;1.23;;;29.20;40.20;;;;;;6113889;29;20040;-74
2023/07/13 10:48:51;;;;;;;2.42;1.10;;;29.20;39.70;;;;;;6097704;29;20519;-73
2023/07/13 10:51:52;;;;;;;2.65;1.20;;;29.20;39.70;;;;;;6085612;29;20102;-72
2023/07/13 10:54:54;;;;;;;3.30;1.33;;;29.30;39.70;;;;;;6120686;29;20035;-72
2023/07/13 10:58:00;;;;;;;2.60;1.10;;;29.20;39.90;;;;;;6121203;29;20411;-73
2023/07/13 11:01:15;;;;;;;5.18;0.80;;;29.30;39.40;;;;;;6121325;29;20085;-73
2023/07/13 11:04:16;;;;;;;2.63;1.17;;;29.40;39.40;;;;;;6121600;29;20039;-74
2023/07/13 11:07:52;;;;;;;4.75;0.73;;;29.40;39.10;;;;;;6128948;29;20122;-75
2023/07/13 11:10:56;;;;;;;1.10;0.98;;;29.80;38.80;;;;;;6144796;29;20070;-76
2023/07/13 11:14:04;;;;;;;4.03;1.67;;;30.70;37.70;;;;;;6144391;28;20456;-73
2023/07/13 11:17:30;;;;;;;2.85;0.90;;;31.40;36.40;;;;;;6128243;29;20062;-73
2023/07/13 11:20:34;;;;;;;0.98;0.77;;;32.20;35.40;;;;;;6144460;28;20122;-74
2023/07/13 11:23:47;;;;;;;2.00;0.70;;;32.70;34.10;;;;;;6124619;29;20157;-72
2023/07/13 11:26:52;;;;;;;1.38;0.90;;;33.10;33.40;;;;;;6121790;29;20032;-75
2023/07/13 11:30:25;;;;;;;2.63;1.20;;;33.50;32.30;;;;;;6121738;29;20091;-72
2023/07/13 11:33:53;;;;;;;2.65;1.23;;;33.80;32.00;;;;;;6120077;29;20131;-73
2023/07/13 11:36:56;;;;;;;2.58;0.90;;;34.20;31.30;;;;;;6120588;29;20040;-73
2023/07/13 11:39:57;;;;;;;1.50;0.80;;;34.60;30.80;;;;;;6120423;29;20439;-72
2023/07/13 11:43:01;;;;;;;4.60;1.67;;;35.00;30.40;;;;;;6120956;29;20437;-74
2023/07/13 11:46:21;;;;;;;1.17;0.75;;;35.40;29.90;;;;;;6119395;29;20397;-72
2023/07/13 11:49:26;;;;;;;1.50;0.93;;;35.70;29.30;;;;;;6118983;29;20038;-72
2023/07/13 11:52:33;;;;;;;3.70;0.95;;;35.90;29.10;;;;;;6119707;29;20488;-73
2023/07/13 11:55:38;;;;;;;10.77;1.00;;;36.10;28.70;;;;;;6104192;29;20028;-73
2023/07/13 11:58:39;;;;;;;0.93;0.73;;;36.40;27.90;;;;;;6119828;29;20034;-73
2023/07/13 12:01:49;;;;;;;3.05;0.95;;;36.40;28.20;;;;;;6135562;29;20059;-75
2023/07/13 12:04:52;;;;;;;1.98;1.33;;;36.50;28.10;;;;;;6121132;29;20031;-74
2023/07/13 12:07:54;;;;;;;3.00;0.80;;;36.70;27.90;;;;;;6119620;29;20059;-74
2023/07/13 12:11:04;;;;;;;3.30;1.15;;;36.80;27.90;;;;;;6110277;29;20043;-74
2023/07/13 12:14:05;;;;;;;5.05;0.85;;;36.70;27.60;;;;;;6142963;29;20035;-72
2023/07/13 12:17:18;;;;;;;1.20;0.75;;;36.90;27.30;;;;;;6142517;28;20362;-72
2023/07/13 12:20:26;;;;;;;4.55;0.85;;;37.00;27.00;;;;;;6142961;29;20034;-73
2023/07/13 12:23:33;;;;;;;1.52;0.90;;;37.20;26.80;;;;;;6124837;29;20031;-73
2023/07/13 12:26:34;;;;;;;4.83;0.90;;;37.40;26.50;;;;;;6103157;29;20042;-74
2023/07/13 12:29:34;;;;;;;1.17;0.80;;;37.50;26.40;;;;;;6103496;29;20408;-74
2023/07/13 12:32:36;;;;;;;3.35;1.00;;;37.60;26.30;;;;;;6120636;29;20032;-73
2023/07/13 12:35:52;;;;;;;1.58;0.80;;;37.70;26.20;;;;;;6103131;29;20090;-72
2023/07/13 12:38:53;;;;;;;1.38;0.75;;;37.70;25.90;;;;;;6103235;29;20039;-74
2023/07/13 12:42:14;;;;;;;1.98;0.90;;;37.50;26.00;;;;;;6118587;29;20058;-73
2023/07/13 12:45:20;;;;;;;1.25;0.65;;;37.50;26.10;;;;;;6102733;29;20145;-73
2023/07/13 12:48:21;;;;;;;7.33;1.10;;;37.60;25.90;;;;;;6118285;29;20484;-72
2023/07/13 12:51:25;;;;;;;4.18;1.02;;;37.70;25.40;;;;;;6118161;29;20292;-73
2023/07/13 12:54:28;;;;;;;1.85;0.80;;;37.30;25.20;;;;;;6078798;29;20123;-73
2023/07/13 12:57:29;;;;;;;2.08;0.90;;;37.20;25.30;;;;;;6095449;29;20032;-72
2023/07/13 13:00:38;;;;;;;2.60;0.80;;;37.50;25.40;;;;;;6103040;29;20424;-73
2023/07/13 13:03:55;;;;;;;6.70;0.80;;;37.60;25.00;;;;;;6113252;29;20039;-73
2023/07/13 13:07:06;;;;;;;2.35;0.90;;;38.00;24.80;;;;;;6132503;29;20081;-72
2023/07/13 13:10:14;;;;;;;2.38;0.60;;;38.40;24.10;;;;;;6149579;28;20507;-74
2023/07/13 13:13:15;;;;;;;5.63;0.90;;;38.60;23.70;;;;;;6150342;28;20031;-74
2023/07/13 13:16:37;;;;;;;1.10;0.60;;;38.90;23.20;;;;;;6149806;28;20474;-73
2023/07/13 13:19:38;;;;;;;3.63;0.93;;;39.00;22.70;;;;;;6133865;28;20031;-74
2023/07/13 13:22:39;;;;;;;3.95;1.63;;;39.00;22.50;;;;;;6115288;29;20028;-73
2023/07/13 13:25:40;;;;;;;1.50;0.70;;;39.10;22.60;;;;;;6126864;29;20035;-73
2023/07/13 13:28:44;;;;;;;2.72;0.80;;;39.70;22.30;;;;;;6126168;29;20113;-73
2023/07/13 13:31:46;;;;;;;3.70;0.70;;;40.30;21.50;;;;;;6126338;29;20055;-73
2023/07/13 13:34:47;;;;;;;1.55;0.65;;;40.50;20.90;;;;;;6126322;29;20036;-74
2023/07/13 13:37:50;;;;;;;2.05;0.90;;;40.80;20.90;;;;;;6110459;29;20070;-73
2023/07/13 13:40:51;;;;;;;1.63;0.50;;;41.30;20.80;;;;;;6110510;29;20545;-74
2023/07/13 13:43:51;;;;;;;3.92;0.75;;;41.80;20.10;;;;;;6125233;29;20059;-74
2023/07/13 13:46:55;;;;;;;1.02;0.70;;;42.00;20.00;;;;;;6125932;29;20040;-74
2023/07/13 13:49:56;;;;;;;3.05;0.73;;;41.80;19.60;;;;;;6126612;29;20171;-73
2023/07/13 13:52:57;;;;;;;0.93;0.47;;;41.80;19.80;;;;;;6127151;29;20042;-73
2023/07/13 13:55:59;;;;;;;1.00;0.50;;;41.80;19.70;;;;;;6110144;29;20036;-73
2023/07/13 13:59:00;;;;;;;1.02;0.70;;;41.50;19.50;;;;;;6110086;29;20142;-73
2023/07/13 14:02:01;;;;;;;2.55;1.10;;;41.80;19.50;;;;;;6125140;29;20058;-74
2023/07/13 14:05:03;;;;;;;2.72;0.60;;;42.10;19.50;;;;;;6144088;28;20124;-73
2023/07/13 14:08:05;;;;;;;2.28;0.90;;;42.90;19.10;;;;;;6149516;28;20515;-73
2023/07/13 14:11:12;;;;;;;8.93;0.93;;;43.30;18.70;;;;;;6144993;28;20511;-74
2023/07/13 14:14:21;;;;;;;0.88;0.65;;;43.60;18.40;;;;;;6129666;29;20689;-72
2023/07/13 14:17:27;;;;;;;4.43;0.80;;;43.60;18.20;;;;;;6145608;28;20391;-72
2023/07/13 14:20:29;;;;;;;1.83;1.13;;;43.70;18.10;;;;;;6145529;28;20134;-72
2023/07/13 14:23:31;;;;;;;6.70;1.05;;;43.90;18.10;;;;;;6126539;29;20027;-73
2023/07/13 14:26:37;;;;;;;0.93;0.70;;;44.10;18.10;;;;;;6105993;29;20032;-73
2023/07/13 14:29:41;;;;;;;1.15;0.70;;;44.10;17.80;;;;;;6121308;29;20036;-73
2023/07/13 14:32:42;;;;;;;1.85;0.60;;;44.10;18.00;;;;;;6121108;29;20067;-72
2023/07/13 14:35:44;;;;;;;2.70;0.85;;;44.50;17.80;;;;;;6121358;29;20524;-72
2023/07/13 14:38:45;;;;;;;1.30;0.68;;;44.70;17.60;;;;;;6121415;29;20036;-73
2023/07/13 14:41:50;;;;;;;0.63;0.63;;;44.80;17.00;;;;;;6120355;28;20039;-73
2023/07/13 14:44:51;;;;;;;1.02;0.80;;;44.40;17.10;;;;;;6105322;29;20447;-72
2023/07/13 14:47:53;;;;;;;4.25;0.85;;;44.00;17.30;;;;;;6120847;29;20130;-73
2023/07/13 14:50:57;;;;;;;3.38;0.63;;;43.60;17.60;;;;;;6120475;29;20572;-73
2023/07/13 14:54:00;;;;;;;1.83;0.77;;;43.20;17.70;;;;;;6109260;29;20043;-73
2023/07/13 14:57:01;;;;;;;1.63;0.50;;;42.60;18.10;;;;;;6113653;29;20040;-74
2023/07/13 15:00:03;;;;;;;1.02;0.60;;;42.00;18.40;;;;;;6119017;29;20483;-72
2023/07/13 15:03:06;;;;;;;1.27;0.73;;;41.40;18.80;;;;;;6138009;29;20031;-73
2023/07/13 15:06:11;;;;;;;1.10;0.60;;;41.20;18.90;;;;;;6105485;29;20032;-74
2023/07/13 15:09:13;;;;;;;1.97;0.50;;;41.30;18.90;;;;;;6122367;29;20035;-74
2023/07/13 15:12:14;;;;;;;0.52;0.50;;;41.40;18.70;;;;;;6104350;29;20358;-72
2023/07/13 15:15:16;;;;;;;0.73;0.73;;;41.10;18.70;;;;;;6120774;29;20429;-74
2023/07/13 15:18:21;;;;;;;1.65;0.65;;;40.50;19.30;;;;;;6120471;29;20095;-74
2023/07/13 15:21:24;;;;;;;2.88;0.65;;;40.10;19.80;;;;;;6119705;29;20507;-73
2023/07/13 15:24:25;;;;;;;2.13;0.80;;;40.20;19.90;;;;;;6120181;29;20110;-73
2023/07/13 15:27:26;;;;;;;2.60;0.73;;;40.50;19.70;;;;;;6103345;29;20417;-73
2023/07/13 15:30:31;;;;;;;0.85;0.70;;;40.80;19.10;;;;;;6112851;29;20063;-73
2023/07/13 15:33:33;;;;;;;2.92;0.80;;;40.90;18.90;;;;;;6097290;29;20342;-73
2023/07/13 15:36:34;;;;;;;2.60;0.50;;;40.90;19.00;;;;;;6081545;29;20056;-72
2023/07/13 15:39:37;;;;;;;3.47;0.70;;;41.20;18.90;;;;;;6113700;29;20556;-73
2023/07/13 15:42:42;;;;;;;9.98;0.82;;;41.60;18.70;;;;;;6110833;29;20043;-73
2023/07/13 15:45:46;;;;;;;2.15;0.55;;;41.60;18.30;;;;;;6120319;29;20050;-74
2023/07/13 15:48:56;;;;;;;2.58;0.60;;;41.40;18.50;;;;;;6106143;29;20040;-73
2023/07/13 15:51:58;;;;;;;3.28;0.70;;;41.20;18.50;;;;;;6119537;29;20130;-74
2023/07/13 15:55:01;;;;;;;1.70;0.68;;;41.10;18.70;;;;;;6120994;29;20028;-73